Time;durP1;ratioP1;P1;durP2;ratioP2;P2;SDS_P1;SDS_P2;PMS_P1;PMS_P2;Temp;Humidity;BMP_temperature;BMP_pressure;BME280_temperature;BME280_humidity;BME280_pressure;Samples;Min_cycle;Max_cycle;Signal;HPM_P1;HPM_P2
2023/10/16 06:15:55;;;;;;;31.80;5.40;;;;;;;-3.60;100.00;96292.63;7392301;19;20376;-92
2023/10/16 06:18:23;;;;;;;7.40;3.10;;;;;;;-3.36;100.00;96331.94;7391759;19;20404;-91
2023/10/16 06:20:52;;;;;;;23.70;7.23;;;;;;;-3.21;100.00;96361.63;7393835;19;20385;-91
2023/10/16 06:23:19;;;;;;;26.40;5.93;;;;;;;-3.25;100.00;96353.56;7393273;19;20404;-91
2023/10/16 06:25:47;;;;;;;13.93;4.27;;;;;;;-4.17;100.00;96209.41;7392278;19;20396;-91
2023/10/16 06:28:15;;;;;;;42.23;7.33;;;;;;;-3.25;100.00;96350.97;7391004;19;20452;-91
2023/10/16 06:30:42;;;;;;;21.03;4.77;;;;;;;-4.28;100.00;96192.19;7392579;19;20463;-91
2023/10/16 06:33:25;;;;;;;17.53;4.90;;;;;;;-3.10;100.00;96386.59;7402364;19;20412;-91
2023/10/16 06:36:17;;;;;;;24.53;6.20;;;;;;;-3.39;100.00;96316.94;7394962;19;20375;-91
2023/10/16 06:38:58;;;;;;;23.37;5.47;;;;;;;-3.67;100.00;96263.59;7391899;19;20420;-91
2023/10/16 06:41:33;;;;;;;27.00;7.10;;;;;;;-4.08;100.00;96295.75;7412685;19;20897;-91
2023/10/16 06:44:01;;;;;;;25.13;7.00;;;;;;;-4.13;100.00;96262.13;7403430;19;21391;-91
2023/10/16 06:46:29;;;;;;;7.70;5.27;;;;;;;-3.17;100.00;96352.38;7405380;19;20914;-91
2023/10/16 06:49:00;;;;;;;21.37;7.10;;;;;;;-3.13;100.00;96372.34;7421511;19;20966;-90
2023/10/16 06:51:30;;;;;;;19.00;5.67;;;;;;;-3.58;100.00;96295.75;7410931;19;20398;-91
2023/10/16 06:54:01;;;;;;;14.43;5.00;;;;;;;-4.19;100.00;96168.34;7403984;19;20464;-91
2023/10/16 06:56:31;;;;;;;25.70;6.20;;;;;;;-3.14;100.00;96313.13;7398994;19;20392;-91
2023/10/16 06:58:58;;;;;;;23.63;6.90;;;;;;;-4.31;100.00;96136.69;7397697;19;20488;-91
2023/10/16 07:01:25;;;;;;;22.57;6.30;;;;;;;-3.55;100.00;96262.72;7399295;19;20890;-91
2023/10/16 07:03:57;;;;;;;25.83;7.17;;;;;;;-2.92;100.00;96364.88;7398628;19;20777;-91
2023/10/16 07:06:31;;;;;;;35.03;6.50;;;;;;;-2.36;100.00;96443.19;7398530;19;20417;-91
2023/10/16 07:09:06;;;;;;;33.80;8.53;;;;;;;-3.25;100.00;96290.75;7397147;19;20423;-91
2023/10/16 07:11:33;;;;;;;33.00;8.47;;;;;;;-3.33;100.00;96289.38;7398456;19;20381;-91
2023/10/16 07:14:00;;;;;;;14.40;6.80;;;;;;;-2.43;100.00;96402.72;7398659;19;20392;-91
2023/10/16 07:16:28;;;;;;;29.53;8.53;;;;;;;-3.56;100.00;96298.09;7398695;19;20741;-92
2023/10/16 07:18:57;;;;;;;71.07;11.87;;;;;;;-3.10;100.00;96358.16;7396186;19;20790;-91
2023/10/16 07:21:25;;;;;;;113.97;14.00;;;;;;;-2.32;100.00;96478.69;7398499;19;20393;-92
2023/10/16 07:23:53;;;;;;;23.83;10.63;;;;;;;-2.94;100.00;96333.28;7398341;19;20393;-90
2023/10/16 07:26:24;;;;;;;31.93;8.83;;;;;;;-1.67;100.00;96501.19;7398287;19;20452;-91
2023/10/16 07:28:52;;;;;;;21.60;8.20;;;;;;;-2.67;100.00;96331.56;7396258;19;20420;-90
2023/10/16 07:31:19;;;;;;;18.20;10.57;;;;;;;-2.06;100.00;96393.53;7399829;19;20368;-90
2023/10/16 07:33:59;;;;;;;21.83;11.37;;;;;;;-1.45;100.00;96469.28;7399091;19;20389;-90
2023/10/16 07:36:27;;;;;;;74.60;14.20;;;;;;;-1.95;100.00;96447.78;7397896;19;20376;-91
2023/10/16 07:38:54;;;;;;;87.40;15.53;;;;;;;-2.53;100.00;96397.44;7396824;19;20467;-91
2023/10/16 07:41:23;;;;;;;47.87;8.87;;;;;;;-3.05;100.00;96294.38;7398285;19;20393;-91
2023/10/16 07:43:56;;;;;;;38.00;8.90;;;;;;;-2.28;100.00;96385.78;7397594;19;20393;-91
2023/10/16 07:46:29;;;;;;;53.10;11.30;;;;;;;-2.31;100.00;96356.00;7398371;19;20416;-91
2023/10/16 07:49:18;;;;;;;37.57;7.90;;;;;;;-3.24;100.00;96316.34;7395513;19;20446;-91
2023/10/16 07:51:45;;;;;;;22.13;7.90;;;;;;;-2.79;100.00;96341.25;7397015;19;20414;-90
2023/10/16 07:54:13;;;;;;;32.00;10.03;;;;;;;-1.72;100.00;96488.19;7397780;19;20472;-91
2023/10/16 07:56:40;;;;;;;33.87;8.63;;;;;;;-1.65;100.00;96433.56;7398802;19;20379;-91
2023/10/16 07:59:07;;;;;;;24.40;7.83;;;;;;;-1.72;100.00;96415.63;7395120;19;21260;-91
2023/10/16 08:04:06;;;;;;;10.40;7.60;;;;;;;-1.33;100.00;96402.47;7397512;19;20397;-91
2023/10/16 08:06:39;;;;;;;13.13;6.73;;;;;;;-1.59;100.00;96370.38;7397921;19;20781;-91
2023/10/16 08:11:58;;;;;;;16.03;8.13;;;;;;;-0.49;100.00;96502.94;7398661;19;20385;-91
2023/10/16 08:14:32;;;;;;;28.40;9.20;;;;;;;-0.76;100.00;96475.25;7397231;19;20388;-91
2023/10/16 08:17:04;;;;;;;18.53;8.53;;;;;;;-1.34;100.00;96362.00;7398859;19;20381;-91
2023/10/16 08:19:34;;;;;;;18.73;9.20;;;;;;;-0.28;100.00;96514.97;7395552;19;20416;-91
2023/10/16 08:22:03;;;;;;;23.57;8.97;;;;;;;-1.11;100.00;96377.19;7397333;19;20408;-91
2023/10/16 08:24:30;;;;;;;28.73;10.97;;;;;;;-0.47;100.00;96452.28;7397219;19;20792;-91
2023/10/16 08:27:10;;;;;;;25.97;9.70;;;;;;;-1.31;100.00;96312.25;7396744;19;20416;-90
2023/10/16 08:29:50;;;;;;;12.90;8.17;;;;;;;-1.19;100.00;96338.78;7395558;19;20965;-91
2023/10/16 08:35:09;;;;;;;16.27;9.70;;;;;;;-0.93;100.00;96361.22;7398300;19;20390;-91
2023/10/16 08:37:41;;;;;;;20.70;8.60;;;;;;;-0.52;100.00;96462.66;7396307;19;20380;-91
2023/10/16 08:40:20;;;;;;;28.20;9.03;;;;;;;-0.58;100.00;96452.50;7396271;19;20849;-91
2023/10/16 08:43:00;;;;;;;17.97;9.40;;;;;;;-0.47;100.00;96439.31;7396824;19;20388;-90
2023/10/16 08:45:29;;;;;;;23.67;7.33;;;;;;;-0.96;100.00;96353.94;7396748;19;20384;-91
2023/10/16 08:48:00;;;;;;;13.43;8.47;;;;;;;-0.60;100.00;96375.66;7396773;19;20420;-91
2023/10/16 08:51:16;;;;;;;12.30;7.30;;;;;;;-0.79;100.00;96358.97;7398205;19;20380;-90
2023/10/16 08:53:30;;;;;;;17.23;8.70;;;;;;;-0.34;100.00;96483.00;7425228;19;20386;-90
2023/10/16 08:56:07;;;;;;;16.77;9.47;;;;;;;-0.80;100.00;96405.91;7428177;19;20400;-90
2023/10/16 08:58:41;;;;;;;16.23;9.10;;;;;;;-0.53;100.00;96416.97;7426063;19;20416;-90
2023/10/16 09:01:09;;;;;;;13.70;8.27;;;;;;;-1.10;100.00;96307.94;7410535;19;20353;-90
2023/10/16 09:03:39;;;;;;;12.73;8.67;;;;;;;0.10;100.00;96485.25;7393003;19;20384;-90
2023/10/16 09:06:06;;;;;;;17.57;8.77;;;;;;;-0.65;100.00;96370.44;7394780;19;20400;-90
2023/10/16 09:08:35;;;;;;;17.77;9.40;;;;;;;-0.94;100.00;96379.63;7393593;19;20424;-91
2023/10/16 09:11:08;;;;;;;14.33;8.23;;;;;;;-0.39;100.00;96448.44;7394398;19;20384;-90
2023/10/16 09:13:35;;;;;;;11.00;7.50;;;;;;;-0.73;100.00;96404.66;7396198;19;20379;-89
2023/10/16 09:16:14;;;;;;;12.33;9.43;;;;;;;0.33;100.00;96524.84;7394382;19;20369;-88
2023/10/16 09:18:42;;;;;;;11.97;8.00;;;;;;;-0.20;100.00;96428.78;7395121;19;20479;-91
2023/10/16 09:21:22;;;;;;;11.53;7.77;;;;;;;-0.53;100.00;96396.19;7393971;19;20373;-90
2023/10/16 09:23:58;;;;;;;16.83;8.70;;;;;;;-0.99;100.00;96340.69;7392957;19;20392;-91
2023/10/16 09:26:29;;;;;;;11.47;9.33;;;;;;;-1.11;100.00;96337.50;7393138;19;20400;-90
2023/10/16 09:29:13;;;;;;;11.07;7.80;;;;;;;-0.08;100.00;96444.94;7392428;19;20451;-90
2023/10/16 09:31:47;;;;;;;18.20;9.00;;;;;;;-0.79;100.00;96329.63;7394282;19;20396;-91
2023/10/16 09:34:19;;;;;;;10.53;7.07;;;;;;;0.46;100.00;96461.97;7394190;19;20388;-90
2023/10/16 09:36:48;;;;;;;11.73;9.33;;;;;;;-0.97;100.00;96261.56;7393278;19;20963;-90
2023/10/16 09:39:19;;;;;;;14.90;10.93;;;;;;;0.34;100.00;96431.00;7391233;19;20520;-90
2023/10/16 09:41:47;;;;;;;9.83;8.17;;;;;;;0.02;100.00;96357.66;7393159;19;20397;-90
2023/10/16 09:47:27;;;;;;;11.27;8.07;;;;;;;0.97;100.00;96503.63;7392325;19;20937;-90
2023/10/16 09:49:59;;;;;;;14.40;9.83;;;;;;;0.97;100.00;96480.22;7392158;19;20383;-90
2023/10/16 09:52:33;;;;;;;11.70;8.27;;;;;;;1.21;100.00;96501.28;7395190;19;20396;-90
2023/10/16 09:55:00;;;;;;;12.90;9.10;;;;;;;1.38;100.00;96488.75;7394681;19;20408;-90
2023/10/16 09:57:30;;;;;;;14.00;10.63;;;;;;;1.71;100.00;96522.03;7394494;19;20933;-90
2023/10/16 10:02:46;;;;;;;12.37;10.27;;;;;;;1.16;100.00;96423.94;7395454;19;20417;-90
2023/10/16 10:05:13;;;;;;;20.50;10.10;;;;;;;1.48;100.00;96489.53;7394625;19;20987;-90
2023/10/16 10:07:49;;;;;;;12.87;11.07;;;;;;;0.61;100.00;96342.31;7394483;19;20397;-90
2023/10/16 10:13:34;;;;;;;14.50;10.60;;;;;;;1.98;100.00;96523.53;7394517;19;20407;-90
2023/10/16 10:16:00;;;;;;;14.90;10.43;;;;;;;1.82;100.00;96467.28;7401223;19;20392;-90
2023/10/16 10:18:42;;;;;;;13.07;10.30;;;;;;;2.23;100.00;96533.88;7400349;19;20443;-90
2023/10/16 10:21:28;;;;;;;17.27;11.40;;;;;;;2.34;100.00;96527.56;7401230;19;20940;-90
2023/10/16 10:24:00;;;;;;;15.80;11.07;;;;;;;2.29;100.00;96516.38;7402137;19;20730;-90
2023/10/16 10:26:32;;;;;;;17.93;12.10;;;;;;;2.49;100.00;96529.31;7401761;19;20379;-90
2023/10/16 10:29:11;;;;;;;13.30;10.50;;;;;;;2.11;100.00;96449.94;7399432;19;20428;-90
2023/10/16 10:31:45;;;;;;;11.10;8.80;;;;;;;1.61;100.00;96389.19;7401187;19;20376;-90
2023/10/16 10:34:28;;;;;;;11.67;9.60;;;;;;;2.33;100.00;96505.13;7400816;19;20380;-90
2023/10/16 10:36:58;;;;;;;15.47;10.97;;;;;;;1.92;100.00;96428.16;7401354;19;20401;-90
2023/10/16 10:42:06;;;;;;;10.63;9.63;;;;;;;2.53;100.00;96479.97;7401191;19;20459;-90
2023/10/16 10:44:54;;;;;;;10.40;8.93;;;;;;;2.60;100.00;96514.38;7401155;19;20395;-90
2023/10/16 10:47:24;;;;;;;11.63;10.37;;;;;;;2.18;100.00;96460.88;7401232;19;20388;-90
2023/10/16 10:49:58;;;;;;;11.17;9.93;;;;;;;2.24;100.00;96465.00;7399139;19;20434;-91
2023/10/16 10:52:32;;;;;;;9.40;8.40;;;;;;;2.65;100.00;96470.75;7403236;19;20467;-90
2023/10/16 10:55:14;;;;;;;8.70;7.23;;;;;;;2.30;100.00;96443.06;7402817;19;20384;-90
2023/10/16 10:57:47;;;;;;;7.80;7.07;;;;;;;0.94;100.00;96212.66;7399786;19;20369;-90
2023/10/16 11:00:24;;;;;;;9.13;8.23;;;;;;;2.62;100.00;96471.31;7399538;19;20396;-91
2023/10/16 11:05:33;;;;;;;7.87;6.17;;;;;;;1.67;100.00;96225.78;7400072;19;20379;-90
2023/10/16 11:10:41;;;;;;;6.07;5.47;;;;;;;1.88;100.00;96211.56;7397450;19;20913;-90
2023/10/16 11:13:09;;;;;;;6.93;6.17;;;;;;;3.88;100.00;96507.06;7401111;19;20452;-90
2023/10/16 11:15:58;;;;;;;8.83;5.90;;;;;;;4.05;100.00;96499.53;7400782;19;20392;-90
2023/10/16 11:18:29;;;;;;;5.00;4.50;;;;;;;3.97;100.00;96458.28;7398909;19;20432;-90
2023/10/16 11:21:04;;;;;;;5.13;4.50;;;;;;;3.10;100.00;96445.34;7402206;19;20389;-90
2023/10/16 11:23:31;;;;;;;5.63;4.77;;;;;;;2.82;100.00;96365.97;7402701;19;20779;-90
2023/10/16 11:25:59;;;;;;;4.10;3.70;;;;;;;3.18;100.00;96345.47;7402364;19;20381;-90
2023/10/16 11:28:31;;;;;;;5.23;3.93;;;;;;;3.92;100.00;96423.59;7400905;19;20475;-90
2023/10/16 11:31:01;;;;;;;6.07;3.70;;;;;;;3.25;100.00;96326.88;7398751;19;20930;-90
2023/10/16 11:34:21;;;;;;;4.40;4.00;;;;;;;4.17;100.00;96419.88;7399095;19;20399;-90
2023/10/16 11:36:23;;;;;;;4.80;3.73;;;;;;;4.46;100.00;96415.25;7397647;19;20460;-90
2023/10/16 11:38:53;;;;;;;3.30;3.10;;;;;;;4.87;100.00;96451.28;7396584;19;20436;-90
2023/10/16 11:41:20;;;;;;;7.90;3.23;;;;;;;5.13;100.00;96462.94;7398259;19;20389;-90
2023/10/16 11:43:51;;;;;;;3.87;3.00;;;;;;;5.09;100.00;96435.75;7398606;19;20377;-89
2023/10/16 11:46:28;;;;;;;4.60;4.20;;;;;;;4.91;100.00;96462.75;7397731;19;20392;-90
2023/10/16 11:49:22;;;;;;;2.73;2.40;;;;;;;5.53;100.00;96429.19;7396485;19;20416;-90
2023/10/16 11:51:52;;;;;;;3.47;3.27;;;;;;;5.71;100.00;96383.72;7398044;19;20426;-90
2023/10/16 11:54:23;;;;;;;3.00;2.67;;;;;;;6.04;100.00;96379.16;7405049;19;20398;-91
2023/10/16 11:56:55;;;;;;;3.00;2.80;;;;;;;6.43;100.00;96394.31;7418539;19;20387;-90
2023/10/16 11:59:28;;;;;;;4.33;3.93;;;;;;;5.95;100.00;96275.97;7398355;19;20415;-90
2023/10/16 12:02:10;;;;;;;2.90;2.33;;;;;;;6.92;100.00;96408.38;7398257;19;20431;-90
2023/10/16 12:04:42;;;;;;;1.87;1.63;;;;;;;7.83;100.00;96449.19;7397628;19;20499;-90
2023/10/16 12:07:16;;;;;;;1.90;1.70;;;;;;;6.94;100.00;96293.22;7397119;19;20937;-90
2023/10/16 12:09:51;;;;;;;2.13;1.70;;;;;;;6.94;100.00;96248.53;7395762;19;20397;-90
2023/10/16 12:12:24;;;;;;;4.20;2.00;;;;;;;6.84;100.00;96338.19;7396377;19;20368;-90
2023/10/16 12:14:53;;;;;;;3.50;2.37;;;;;;;7.18;100.00;96441.94;7396244;19;20432;-90
2023/10/16 12:17:20;;;;;;;2.40;1.87;;;;;;;7.04;100.00;96366.56;7396614;19;20914;-90
2023/10/16 12:19:47;;;;;;;1.93;1.70;;;;;;;7.51;100.00;96332.72;7394085;19;20431;-90
2023/10/16 12:22:20;;;;;;;1.93;1.40;;;;;;;8.66;98.33;96420.97;7396301;19;20918;-90
2023/10/16 12:24:48;;;;;;;2.17;1.07;;;;;;;8.48;95.11;96311.41;7396110;19;20385;-90
2023/10/16 12:27:16;;;;;;;2.37;1.20;;;;;;;7.41;85.53;96207.50;7396040;19;20436;-90
2023/10/16 12:29:46;;;;;;;2.73;1.50;;;;;;;7.70;81.61;96261.38;7394056;19;20970;-90
2023/10/16 12:32:13;;;;;;;4.33;1.30;;;;;;;7.88;75.81;96235.84;7395751;19;20392;-90
2023/10/16 12:34:41;;;;;;;5.23;1.80;;;;;;;9.46;75.74;96387.75;7396527;19;20392;-90
2023/10/16 12:37:09;;;;;;;1.30;1.20;;;;;;;9.71;73.48;96382.69;7394005;19;20393;-90
2023/10/16 12:39:55;;;;;;;3.13;1.10;;;;;;;10.37;73.94;96433.13;7393467;19;20433;-90
2023/10/16 12:42:22;;;;;;;1.40;1.20;;;;;;;9.48;75.71;96347.84;7394366;19;20376;-90
2023/10/16 12:44:49;;;;;;;2.60;1.30;;;;;;;10.06;74.72;96389.31;7394662;19;20356;-90
2023/10/16 12:47:16;;;;;;;1.97;1.20;;;;;;;11.03;71.05;96429.78;7395019;19;20735;-90
2023/10/16 12:50:05;;;;;;;1.23;1.07;;;;;;;9.72;70.04;96313.72;7394829;19;20393;-90
2023/10/16 12:52:32;;;;;;;1.97;1.43;;;;;;;10.05;70.62;96290.03;7394900;19;20381;-90
2023/10/16 12:55:01;;;;;;;3.50;2.03;;;;;;;9.35;70.70;96240.69;7394550;19;20376;-90
2023/10/16 12:57:28;;;;;;;1.40;1.10;;;;;;;11.23;68.93;96408.59;7394291;19;20380;-90
2023/10/16 12:59:56;;;;;;;2.50;2.27;;;;;;;11.10;67.73;96361.25;7394619;19;20388;-90
2023/10/16 13:02:26;;;;;;;2.90;1.10;;;;;;;11.31;66.63;96355.88;7394963;19;20389;-90
2023/10/16 13:04:55;;;;;;;1.77;1.10;;;;;;;10.97;67.36;96330.59;7394847;19;20922;-90
2023/10/16 13:07:24;;;;;;;1.20;1.10;;;;;;;9.97;70.11;96305.94;7394512;19;20452;-91
2023/10/16 13:10:20;;;;;;;2.80;1.33;;;;;;;10.53;68.47;96364.59;7393799;19;20894;-90
2023/10/16 13:12:47;;;;;;;1.40;1.30;;;;;;;10.73;69.38;96384.19;7394210;19;20384;-90
2023/10/16 13:15:16;;;;;;;2.43;1.37;;;;;;;9.83;68.92;96385.41;7394519;19;20388;-90
2023/10/16 13:17:48;;;;;;;2.20;1.97;;;;;;;10.04;69.61;96320.19;7393810;19;20393;-90
2023/10/16 13:20:19;;;;;;;2.93;2.30;;;;;;;11.18;67.45;96373.59;7394422;19;20380;-90
2023/10/16 13:22:49;;;;;;;4.50;1.40;;;;;;;11.63;64.77;96357.66;7394248;19;20494;-90
2023/10/16 13:25:17;;;;;;;3.30;1.60;;;;;;;11.84;63.15;96341.66;7393883;19;20404;-90
2023/10/16 13:27:44;;;;;;;2.77;1.40;;;;;;;9.48;64.63;96305.63;7393993;19;20460;-91
2023/10/16 13:30:11;;;;;;;2.00;1.43;;;;;;;8.84;64.04;96260.94;7393223;19;20377;-91
2023/10/16 13:32:41;;;;;;;1.20;1.00;;;;;;;8.34;65.58;96342.41;7393659;19;20389;-90
2023/10/16 13:35:16;;;;;;;1.67;1.20;;;;;;;9.15;63.47;96297.56;7395394;19;20416;-90
2023/10/16 13:37:48;;;;;;;2.50;1.10;;;;;;;9.46;62.98;96363.22;7394005;19;20395;-90
2023/10/16 13:40:20;;;;;;;1.53;1.37;;;;;;;11.60;59.32;96394.59;7393283;19;20476;-90
2023/10/16 13:42:51;;;;;;;1.93;1.00;;;;;;;9.01;59.25;96313.59;7394313;19;20376;-90
2023/10/16 13:45:19;;;;;;;1.73;1.10;;;;;;;9.66;61.90;96303.69;7393829;19;20404;-90
2023/10/16 13:47:46;;;;;;;2.80;1.83;;;;;;;9.06;62.23;96209.81;7392894;19;20517;-90
2023/10/16 13:50:15;;;;;;;1.00;0.80;;;;;;;10.19;61.73;96349.75;7391585;19;20945;-90
2023/10/16 13:52:44;;;;;;;2.13;1.30;;;;;;;10.20;63.50;96222.63;7393363;19;20393;-90
2023/10/16 13:55:12;;;;;;;2.00;1.23;;;;;;;11.21;63.63;96379.00;7393219;19;20389;-90
2023/10/16 13:57:42;;;;;;;2.30;1.33;;;;;;;10.18;64.45;96231.97;7393032;19;20391;-90
2023/10/16 14:00:28;;;;;;;2.50;1.37;;;;;;;9.40;66.33;96227.31;7392525;19;20389;-90
2023/10/16 14:03:04;;;;;;;3.33;1.40;;;;;;;11.41;63.02;96233.66;7393356;19;20385;-90
2023/10/16 14:05:50;;;;;;;2.43;1.10;;;;;;;11.14;62.28;96190.13;7393661;19;20400;-90
2023/10/16 14:08:26;;;;;;;1.90;1.70;;;;;;;12.38;62.51;96371.25;7393414;19;20432;-90
2023/10/16 14:10:57;;;;;;;2.27;1.60;;;;;;;9.71;64.45;96134.53;7392333;19;20402;-90
2023/10/16 14:13:28;;;;;;;1.83;1.20;;;;;;;12.15;64.35;96330.44;7393218;19;20361;-90
2023/10/16 14:16:18;;;;;;;2.70;1.77;;;;;;;10.34;66.15;96320.91;7400608;19;20751;-91
2023/10/16 14:18:44;;;;;;;2.47;1.70;;;;;;;8.96;69.42;96176.69;7415959;19;20433;-91
2023/10/16 14:21:13;;;;;;;1.87;1.50;;;;;;;9.08;70.08;96197.88;7419705;19;20372;-90
2023/10/16 14:23:40;;;;;;;2.07;1.50;;;;;;;7.68;71.15;96139.88;7401241;19;20395;-90
2023/10/16 14:26:24;;;;;;;2.80;1.60;;;;;;;8.83;71.79;96194.28;7392053;19;20798;-90
2023/10/16 14:28:53;;;;;;;1.50;1.40;;;;;;;9.97;68.51;96304.06;7391968;19;20415;-90
2023/10/16 14:31:21;;;;;;;1.30;1.07;;;;;;;10.16;70.25;96331.94;7391054;19;20392;-90
2023/10/16 14:33:49;;;;;;;2.17;1.50;;;;;;;8.83;70.30;96238.31;7392153;19;20392;-90
2023/10/16 14:36:19;;;;;;;3.43;1.87;;;;;;;8.99;71.84;96236.69;7392261;19;20373;-90
2023/10/16 14:38:46;;;;;;;2.67;1.73;;;;;;;10.04;70.74;96298.28;7390792;19;20420;-90
2023/10/16 14:41:17;;;;;;;1.87;1.20;;;;;;;10.13;68.57;96222.38;7391641;19;20403;-90
2023/10/16 14:43:48;;;;;;;1.40;1.30;;;;;;;11.27;67.17;96241.94;7391823;19;20937;-90
2023/10/16 14:46:16;;;;;;;3.73;1.60;;;;;;;11.87;65.34;96313.72;7391498;19;20369;-91
2023/10/16 14:48:44;;;;;;;3.13;1.77;;;;;;;10.67;66.36;96317.47;7400150;19;20405;-90
2023/10/16 14:51:15;;;;;;;1.70;1.17;;;;;;;12.21;64.97;96358.25;7413747;19;20377;-91
2023/10/16 14:53:44;;;;;;;3.90;1.50;;;;;;;11.14;68.03;96364.78;7411240;19;20392;-90
2023/10/16 14:56:18;;;;;;;4.27;2.80;;;;;;;9.87;69.48;96287.84;7415366;19;20388;-91
2023/10/16 14:58:47;;;;;;;3.30;1.43;;;;;;;10.48;68.75;96323.28;7395526;19;20938;-90
2023/10/16 15:01:36;;;;;;;4.20;1.93;;;;;;;9.76;70.03;96258.44;7396378;19;20398;-90
2023/10/16 15:04:04;;;;;;;3.67;2.17;;;;;;;8.99;71.66;96270.97;7399263;19;20409;-91
2023/10/16 15:06:31;;;;;;;2.27;1.63;;;;;;;9.01;74.36;96344.47;7399254;19;20405;-90
2023/10/16 15:08:58;;;;;;;2.80;1.70;;;;;;;7.25;77.73;96208.28;7397275;19;20950;-90
2023/10/16 15:11:28;;;;;;;4.80;2.00;;;;;;;6.51;83.94;96222.09;7397061;19;20392;-91
2023/10/16 15:13:55;;;;;;;7.10;2.60;;;;;;;6.69;85.85;96188.81;7398316;19;20440;-90
2023/10/16 15:16:22;;;;;;;4.43;2.10;;;;;;;7.65;88.98;96309.69;7397890;19;20385;-90
2023/10/16 15:18:50;;;;;;;3.80;1.90;;;;;;;7.43;96.34;96304.53;7397023;19;20438;-90
2023/10/16 15:21:18;;;;;;;3.90;2.40;;;;;;;7.78;97.74;96320.38;7398327;19;20409;-90
2023/10/16 15:23:45;;;;;;;6.73;2.40;;;;;;;6.97;100.00;96273.47;7398083;19;20361;-90
2023/10/16 15:26:13;;;;;;;2.77;2.53;;;;;;;6.44;100.00;96229.66;7398105;19;20387;-90
2023/10/16 15:28:41;;;;;;;3.27;2.83;;;;;;;6.66;100.00;96255.06;7396667;19;20396;-90
2023/10/16 15:31:31;;;;;;;3.00;2.70;;;;;;;6.39;100.00;96256.78;7396166;19;20774;-90
2023/10/16 15:34:19;;;;;;;2.80;2.27;;;;;;;6.38;100.00;96236.88;7401473;19;20402;-90
2023/10/16 15:36:49;;;;;;;5.40;4.20;;;;;;;5.75;100.00;96195.09;7397948;19;20456;-90
2023/10/16 15:39:16;;;;;;;2.53;2.40;;;;;;;5.71;100.00;96160.00;7395633;19;20416;-90
2023/10/16 15:41:44;;;;;;;3.60;2.13;;;;;;;4.88;100.00;96089.53;7397659;19;20821;-90
2023/10/16 15:44:12;;;;;;;2.97;2.23;;;;;;;5.26;100.00;96141.66;7398503;19;20385;-90
2023/10/16 15:46:40;;;;;;;2.90;1.90;;;;;;;4.96;100.00;96103.78;7397896;19;20400;-90
2023/10/16 15:49:08;;;;;;;2.80;1.80;;;;;;;5.27;100.00;96167.56;7395762;19;20432;-90
2023/10/16 15:51:36;;;;;;;2.03;1.80;;;;;;;6.28;100.00;96318.53;7395801;19;20401;-90
2023/10/16 15:54:04;;;;;;;4.33;1.93;;;;;;;4.46;100.00;96051.41;7397311;19;20392;-90
2023/10/16 15:56:31;;;;;;;3.70;2.10;;;;;;;5.28;100.00;96195.31;7397737;19;20372;-90
2023/10/16 15:58:58;;;;;;;3.90;2.00;;;;;;;5.38;100.00;96245.97;7395186;19;20416;-90
2023/10/16 16:01:26;;;;;;;3.13;2.27;;;;;;;5.34;100.00;96195.97;7396650;19;20412;-90
2023/10/16 16:03:58;;;;;;;3.93;2.60;;;;;;;4.45;100.00;96126.56;7396696;19;20945;-90
2023/10/16 16:06:32;;;;;;;2.80;2.20;;;;;;;4.81;100.00;96182.66;7397721;19;20349;-90
2023/10/16 16:09:02;;;;;;;2.33;2.10;;;;;;;5.50;100.00;96301.31;7396264;19;20831;-90
2023/10/16 16:11:31;;;;;;;3.13;2.17;;;;;;;5.28;100.00;96279.19;7396399;19;20397;-90
2023/10/16 16:13:58;;;;;;;8.77;2.80;;;;;;;5.66;100.00;96314.88;7396561;19;20397;-90
2023/10/16 16:16:26;;;;;;;3.10;2.50;;;;;;;5.29;100.00;96264.25;7397217;19;20878;-90
2023/10/16 16:18:54;;;;;;;2.10;1.90;;;;;;;5.03;100.00;96245.63;7395776;19;20428;-90
2023/10/16 16:21:21;;;;;;;3.90;1.70;;;;;;;4.83;100.00;96206.75;7397582;19;20368;-90
2023/10/16 16:23:49;;;;;;;2.93;2.67;;;;;;;5.54;100.00;96289.16;7396005;19;20391;-90
2023/10/16 16:26:16;;;;;;;3.20;2.90;;;;;;;5.75;100.00;96326.22;7396479;19;21272;-90
2023/10/16 16:28:46;;;;;;;3.80;3.40;;;;;;;4.60;100.00;96187.53;7395396;19;20428;-90
2023/10/16 16:31:15;;;;;;;4.10;2.93;;;;;;;3.91;100.00;96074.22;7395402;19;20373;-90
2023/10/16 16:33:43;;;;;;;4.40;2.77;;;;;;;5.27;100.00;96290.75;7396022;19;20380;-90
2023/10/16 16:36:14;;;;;;;4.90;3.40;;;;;;;4.61;100.00;96215.25;7397226;19;20452;-90
2023/10/16 16:38:42;;;;;;;4.80;3.47;;;;;;;5.10;100.00;96269.59;7394812;19;20409;-90
2023/10/16 16:41:12;;;;;;;4.90;3.03;;;;;;;5.10;100.00;96295.03;7395933;19;20376;-90
2023/10/16 16:43:39;;;;;;;2.90;2.70;;;;;;;4.69;100.00;96202.28;7396098;19;20393;-90
2023/10/16 16:46:07;;;;;;;4.50;3.03;;;;;;;5.32;100.00;96272.28;7395821;19;20395;-90
2023/10/16 16:48:34;;;;;;;5.93;3.73;;;;;;;4.91;100.00;96227.00;7394566;19;20428;-90
2023/10/16 16:51:01;;;;;;;3.80;3.37;;;;;;;5.08;100.00;96253.41;7394893;19;20381;-90
2023/10/16 16:53:29;;;;;;;4.47;3.23;;;;;;;4.16;100.00;96128.69;7395033;19;20401;-90
2023/10/16 16:55:57;;;;;;;3.80;3.50;;;;;;;4.59;100.00;96215.56;7395564;19;20434;-90
2023/10/16 16:58:24;;;;;;;6.53;3.60;;;;;;;4.59;100.00;96238.34;7394547;19;20415;-90
2023/10/16 17:00:55;;;;;;;3.97;3.60;;;;;;;3.39;100.00;96066.44;7395642;19;20470;-90
2023/10/16 17:03:23;;;;;;;4.87;3.47;;;;;;;4.74;100.00;96256.38;7395429;19;20445;-90
2023/10/16 17:05:50;;;;;;;10.43;6.30;;;;;;;4.17;100.00;96181.78;7394920;19;20375;-90
2023/10/16 17:08:17;;;;;;;5.67;5.10;;;;;;;4.41;100.00;96222.44;7394154;19;20414;-89
2023/10/16 17:10:44;;;;;;;7.00;5.00;;;;;;;3.98;100.00;96161.66;7395258;19;20750;-90
2023/10/16 17:13:12;;;;;;;4.70;3.97;;;;;;;4.80;100.00;96298.97;7394868;19;20385;-90
2023/10/16 17:15:39;;;;;;;4.43;3.77;;;;;;;4.60;100.00;96297.50;7394694;19;20377;-90
2023/10/16 17:18:07;;;;;;;8.30;5.40;;;;;;;4.38;100.00;96264.09;7393572;19;20404;-89
2023/10/16 17:20:35;;;;;;;5.50;4.60;;;;;;;3.62;100.00;96205.91;7394800;19;20395;-90
2023/10/16 17:23:02;;;;;;;3.97;3.67;;;;;;;3.38;100.00;96210.44;7394265;19;20401;-90
2023/10/16 17:25:35;;;;;;;5.00;4.30;;;;;;;2.68;100.00;96096.22;7394648;19;20384;-90
2023/10/16 17:28:03;;;;;;;5.33;4.90;;;;;;;3.38;100.00;96198.16;7394306;19;20401;-90
2023/10/16 17:30:31;;;;;;;6.70;4.93;;;;;;;3.97;100.00;96277.03;7394753;19;20393;-90
2023/10/16 17:32:59;;;;;;;3.50;3.20;;;;;;;2.77;100.00;96132.91;7395582;19;20392;-90
2023/10/16 17:35:38;;;;;;;6.00;3.70;;;;;;;3.05;100.00;96173.00;7394095;19;20410;-92
2023/10/16 17:38:09;;;;;;;8.90;5.67;;;;;;;3.68;100.00;96262.28;7392702;19;20412;-91
2023/10/16 17:40:38;;;;;;;10.10;5.27;;;;;;;4.25;100.00;96340.72;7392657;19;20416;-90
2023/10/16 17:43:04;;;;;;;13.07;10.20;;;;;;;2.93;100.00;96166.34;7392722;19;20946;-90
2023/10/16 17:45:33;;;;;;;16.67;12.73;;;;;;;3.10;100.00;96219.97;7393014;19;20419;-90
2023/10/16 17:48:00;;;;;;;17.07;15.27;;;;;;;4.08;100.00;96355.09;7392131;19;20396;-89
2023/10/16 17:50:27;;;;;;;14.93;12.80;;;;;;;3.43;100.00;96239.13;7392857;19;20937;-89
2023/10/16 17:52:54;;;;;;;14.03;12.80;;;;;;;3.43;100.00;96270.47;7392336;19;20389;-90
2023/10/16 17:55:21;;;;;;;14.77;13.27;;;;;;;2.94;100.00;96207.09;7402836;19;20426;-89
2023/10/16 17:57:49;;;;;;;12.50;11.20;;;;;;;2.38;100.00;96158.13;7413977;19;20790;-90
2023/10/16 18:00:17;;;;;;;11.57;10.37;;;;;;;3.40;100.00;96318.84;7393999;19;20381;-90
2023/10/16 18:02:46;;;;;;;13.03;10.37;;;;;;;1.96;100.00;96143.19;7392224;19;20425;-90
2023/10/16 18:05:16;;;;;;;11.00;9.97;;;;;;;2.86;100.00;96290.47;7391868;19;20448;-91
2023/10/16 18:07:44;;;;;;;10.00;8.97;;;;;;;1.82;100.00;96154.53;7391011;19;20409;-89
2023/10/16 18:10:16;;;;;;;8.97;8.07;;;;;;;2.57;100.00;96275.63;7392930;19;20400;-87
2023/10/16 18:12:46;;;;;;;9.73;6.83;;;;;;;1.48;100.00;96079.78;7391070;19;20372;-87
2023/10/16 18:15:14;;;;;;;7.53;6.43;;;;;;;3.21;100.00;96342.34;7392503;19;20482;-88
2023/10/16 18:17:42;;;;;;;9.27;8.40;;;;;;;2.76;100.00;96327.91;7396721;19;20368;-87
2023/10/16 18:20:10;;;;;;;9.43;8.53;;;;;;;2.67;100.00;96312.06;7392357;19;20392;-87
2023/10/16 18:22:38;;;;;;;14.93;13.43;;;;;;;2.22;100.00;96247.25;7392424;19;20408;-86
2023/10/16 18:25:08;;;;;;;15.53;13.87;;;;;;;2.70;100.00;96320.41;7391857;19;20930;-87
2023/10/16 18:27:36;;;;;;;13.10;11.80;;;;;;;2.93;100.00;96330.84;7392788;19;20369;-88